PWSweather.com
Personal Weather Stations
Station Observations
KMAROCK
Pebble Beach, Rockport, MA 01966

Pebble BeachRockport, MA 01966

Lat: 42.63577271, Lon: -70.597377

Elevation: 20

Station Type: Davis Vantage Pro2

http://weather-rockport.keneli.org

High Low Average
Temperature 40.2°F4.6°C 25.2°F-3.8°C 31.2°F-0.4°C
Dew Point 28.7°F-1.8°C 15.4°F-9.2°C 19.4°F-7.0°C
Winds 24.0 mph 38.6 kmh Calm Calm 8.0 mph W12.9 kmh W
Wind Gusts 32.0 mph51.5 kmh 3.0 mph4.8 kmh 12.0 mph19.3 kmh
Humidity 69% 47% 62%
Pressure 30.28 in1025.4 mb 30.09 in1019.0 mb -
Precipitation 0.00 in0.0 mm - -
Hour Temp Dew Point Humidity Winds Wind Gusts Pressure Precip Precip Rate Daily Precip Total
12:00 AM 29.3°F-1.5°C 17.9°F-7.8°C 62% 7.0 mph NW11.3 kmh NW 11.0 mph17.7 kmh 30.25 in1024.4 mb 0.00 in0.0 mm 0.00 in/hr0.0 mm/hr 0.00 in0.0 mm
12:05 AM 29.2°F-1.6°C 17.8°F-7.9°C 62% 7.0 mph NW11.3 kmh NW 12.0 mph19.3 kmh 30.25 in1024.4 mb 0.00 in0.0 mm 0.00 in/hr0.0 mm/hr 0.00 in0.0 mm
12:10 AM 29.1°F-1.6°C 17.7°F-7.9°C 62% 8.0 mph NW12.9 kmh NW 10.0 mph16.1 kmh 30.25 in1024.4 mb 0.00 in0.0 mm 0.00 in/hr0.0 mm/hr 0.00 in0.0 mm
12:15 AM 29.1°F-1.6°C 18.1°F-7.7°C 63% 9.0 mph WNW14.5 kmh WNW 11.0 mph17.7 kmh 30.24 in1024.0 mb 0.00 in0.0 mm 0.00 in/hr0.0 mm/hr 0.00 in0.0 mm
12:20 AM 29.0°F-1.7°C 18.0°F-7.8°C 63% 11.0 mph NW17.7 kmh NW 11.0 mph17.7 kmh 30.24 in1024.0 mb 0.00 in0.0 mm 0.00 in/hr0.0 mm/hr 0.00 in0.0 mm
12:25 AM 28.9°F-1.7°C 17.9°F-7.8°C 63% 9.0 mph WNW14.5 kmh WNW 12.0 mph19.3 kmh 30.24 in1024.0 mb 0.00 in0.0 mm 0.00 in/hr0.0 mm/hr 0.00 in0.0 mm
12:30 AM 28.8°F-1.8°C 17.8°F-7.9°C 63% 8.0 mph NW12.9 kmh NW 12.0 mph19.3 kmh 30.24 in1024.0 mb 0.00 in0.0 mm 0.00 in/hr0.0 mm/hr 0.00 in0.0 mm
12:35 AM 28.8°F-1.8°C 18.1°F-7.7°C 64% 10.0 mph NW16.1 kmh NW 11.0 mph17.7 kmh 30.24 in1024.0 mb 0.00 in0.0 mm 0.00 in/hr0.0 mm/hr 0.00 in0.0 mm
12:40 AM 28.7°F-1.8°C 18.0°F-7.8°C 64% 9.0 mph NW14.5 kmh NW 11.0 mph17.7 kmh 30.24 in1024.0 mb 0.00 in0.0 mm 0.00 in/hr0.0 mm/hr 0.00 in0.0 mm
12:45 AM 28.6°F-1.9°C 17.9°F-7.8°C 64% 5.0 mph NW8.0 kmh NW 11.0 mph17.7 kmh 30.24 in1024.0 mb 0.00 in0.0 mm 0.00 in/hr0.0 mm/hr 0.00 in0.0 mm
12:50 AM 28.5°F-1.9°C 17.8°F-7.9°C 64% 5.0 mph NW8.0 kmh NW 12.0 mph19.3 kmh 30.24 in1024.0 mb 0.00 in0.0 mm 0.00 in/hr0.0 mm/hr 0.00 in0.0 mm
12:55 AM 28.4°F-2.0°C 18.1°F-7.7°C 65% 6.0 mph NNW9.7 kmh NNW 11.0 mph17.7 kmh 30.25 in1024.4 mb 0.00 in0.0 mm 0.00 in/hr0.0 mm/hr 0.00 in0.0 mm
01:00 AM 28.3°F-2.1°C 18.0°F-7.8°C 65% 5.0 mph NW8.0 kmh NW 9.0 mph14.5 kmh 30.25 in1024.4 mb 0.00 in0.0 mm 0.00 in/hr0.0 mm/hr 0.00 in0.0 mm
01:05 AM 28.2°F-2.1°C 17.9°F-7.8°C 65% 11.0 mph NW17.7 kmh NW 13.0 mph20.9 kmh 30.25 in1024.4 mb 0.00 in0.0 mm 0.00 in/hr0.0 mm/hr 0.00 in0.0 mm
01:10 AM 28.1°F-2.2°C 17.8°F-7.9°C 65% 5.0 mph NW8.0 kmh NW 13.0 mph20.9 kmh 30.25 in1024.4 mb 0.00 in0.0 mm 0.00 in/hr0.0 mm/hr 0.00 in0.0 mm
01:15 AM 28.1°F-2.2°C 17.8°F-7.9°C 65% 5.0 mph NW8.0 kmh NW 12.0 mph19.3 kmh 30.25 in1024.4 mb 0.00 in0.0 mm 0.00 in/hr0.0 mm/hr 0.00 in0.0 mm
01:20 AM 28.0°F-2.2°C 17.7°F-7.9°C 65% 8.0 mph NW12.9 kmh NW 13.0 mph20.9 kmh 30.25 in1024.4 mb 0.00 in0.0 mm 0.00 in/hr0.0 mm/hr 0.00 in0.0 mm
01:25 AM 27.9°F-2.3°C 17.6°F-8.0°C 65% 7.0 mph NW11.3 kmh NW 10.0 mph16.1 kmh 30.25 in1024.4 mb 0.00 in0.0 mm 0.00 in/hr0.0 mm/hr 0.00 in0.0 mm
01:30 AM 27.9°F-2.3°C 18.0°F-7.8°C 66% 7.0 mph NNW11.3 kmh NNW 10.0 mph16.1 kmh 30.25 in1024.4 mb 0.00 in0.0 mm 0.00 in/hr0.0 mm/hr 0.00 in0.0 mm
01:35 AM 27.8°F-2.3°C 17.9°F-7.8°C 66% 6.0 mph NW9.7 kmh NW 10.0 mph16.1 kmh 30.25 in1024.4 mb 0.00 in0.0 mm 0.00 in/hr0.0 mm/hr 0.00 in0.0 mm
01:40 AM 27.8°F-2.3°C 17.9°F-7.8°C 66% 4.0 mph NW6.4 kmh NW 9.0 mph14.5 kmh 30.25 in1024.4 mb 0.00 in0.0 mm 0.00 in/hr0.0 mm/hr 0.00 in0.0 mm
01:45 AM 27.7°F-2.4°C 17.8°F-7.9°C 66% 5.0 mph W8.0 kmh W 12.0 mph19.3 kmh 30.26 in1024.7 mb 0.00 in0.0 mm 0.00 in/hr0.0 mm/hr 0.00 in0.0 mm
01:50 AM 27.7°F-2.4°C 17.8°F-7.9°C 66% 4.0 mph NW6.4 kmh NW 9.0 mph14.5 kmh 30.26 in1024.7 mb 0.00 in0.0 mm 0.00 in/hr0.0 mm/hr 0.00 in0.0 mm
01:55 AM 27.6°F-2.4°C 17.7°F-7.9°C 66% 6.0 mph NW9.7 kmh NW 8.0 mph12.9 kmh 30.26 in1024.7 mb 0.00 in0.0 mm 0.00 in/hr0.0 mm/hr 0.00 in0.0 mm
02:00 AM 27.6°F-2.4°C 17.7°F-7.9°C 66% 6.0 mph NW9.7 kmh NW 8.0 mph12.9 kmh 30.26 in1024.7 mb 0.00 in0.0 mm 0.00 in/hr0.0 mm/hr 0.00 in0.0 mm
02:05 AM 27.5°F-2.5°C 17.6°F-8.0°C 66% 8.0 mph NW12.9 kmh NW 11.0 mph17.7 kmh 30.26 in1024.7 mb 0.00 in0.0 mm 0.00 in/hr0.0 mm/hr 0.00 in0.0 mm
02:10 AM 27.4°F-2.6°C 17.5°F-8.1°C 66% 7.0 mph WNW11.3 kmh WNW 11.0 mph17.7 kmh 30.26 in1024.7 mb 0.00 in0.0 mm 0.00 in/hr0.0 mm/hr 0.00 in0.0 mm
02:15 AM 27.4°F-2.6°C 17.5°F-8.1°C 66% 7.0 mph WNW11.3 kmh WNW 11.0 mph17.7 kmh 30.26 in1024.7 mb 0.00 in0.0 mm 0.00 in/hr0.0 mm/hr 0.00 in0.0 mm
02:20 AM 27.3°F-2.6°C 17.4°F-8.1°C 66% 9.0 mph NW14.5 kmh NW 10.0 mph16.1 kmh 30.26 in1024.7 mb 0.00 in0.0 mm 0.00 in/hr0.0 mm/hr 0.00 in0.0 mm
02:25 AM 27.3°F-2.6°C 17.1°F-8.3°C 65% 7.0 mph NW11.3 kmh NW 13.0 mph20.9 kmh 30.26 in1024.7 mb 0.00 in0.0 mm 0.00 in/hr0.0 mm/hr 0.00 in0.0 mm
02:30 AM 27.2°F-2.7°C 17.3°F-8.2°C 66% 7.0 mph W11.3 kmh W 13.0 mph20.9 kmh 30.26 in1024.7 mb 0.00 in0.0 mm 0.00 in/hr0.0 mm/hr 0.00 in0.0 mm
02:35 AM 27.1°F-2.7°C 17.2°F-8.2°C 66% 6.0 mph NW9.7 kmh NW 11.0 mph17.7 kmh 30.26 in1024.7 mb 0.00 in0.0 mm 0.00 in/hr0.0 mm/hr 0.00 in0.0 mm
02:40 AM 27.1°F-2.7°C 17.2°F-8.2°C 66% 5.0 mph NW8.0 kmh NW 8.0 mph12.9 kmh 30.26 in1024.7 mb 0.00 in0.0 mm 0.00 in/hr0.0 mm/hr 0.00 in0.0 mm
02:45 AM 27.0°F-2.8°C 17.1°F-8.3°C 66% 7.0 mph NW11.3 kmh NW 11.0 mph17.7 kmh 30.26 in1024.7 mb 0.00 in0.0 mm 0.00 in/hr0.0 mm/hr 0.00 in0.0 mm
02:50 AM 26.9°F-2.8°C 17.0°F-8.3°C 66% 9.0 mph NW14.5 kmh NW 13.0 mph20.9 kmh 30.26 in1024.7 mb 0.00 in0.0 mm 0.00 in/hr0.0 mm/hr 0.00 in0.0 mm
02:55 AM 26.8°F-2.9°C 16.9°F-8.4°C 66% 5.0 mph WNW8.0 kmh WNW 13.0 mph20.9 kmh 30.26 in1024.7 mb 0.00 in0.0 mm 0.00 in/hr0.0 mm/hr 0.00 in0.0 mm
03:00 AM 26.8°F-2.9°C 16.9°F-8.4°C 66% 7.0 mph NW11.3 kmh NW 10.0 mph16.1 kmh 30.26 in1024.7 mb 0.00 in0.0 mm 0.00 in/hr0.0 mm/hr 0.00 in0.0 mm
03:05 AM 26.7°F-2.9°C 16.8°F-8.4°C 66% 7.0 mph NW11.3 kmh NW 9.0 mph14.5 kmh 30.26 in1024.7 mb 0.00 in0.0 mm 0.00 in/hr0.0 mm/hr 0.00 in0.0 mm
03:10 AM 26.7°F-2.9°C 16.8°F-8.4°C 66% 4.0 mph NW6.4 kmh NW 12.0 mph19.3 kmh 30.26 in1024.7 mb 0.00 in0.0 mm 0.00 in/hr0.0 mm/hr 0.00 in0.0 mm
03:15 AM 26.6°F-3.0°C 16.7°F-8.5°C 66% 7.0 mph NW11.3 kmh NW 8.0 mph12.9 kmh 30.26 in1024.7 mb 0.00 in0.0 mm 0.00 in/hr0.0 mm/hr 0.00 in0.0 mm
03:20 AM 26.6°F-3.0°C 16.7°F-8.5°C 66% 3.0 mph NW4.8 kmh NW 10.0 mph16.1 kmh 30.26 in1024.7 mb 0.00 in0.0 mm 0.00 in/hr0.0 mm/hr 0.00 in0.0 mm
03:25 AM 26.5°F-3.1°C 16.3°F-8.7°C 65% 7.0 mph NNW11.3 kmh NNW 11.0 mph17.7 kmh 30.26 in1024.7 mb 0.00 in0.0 mm 0.00 in/hr0.0 mm/hr 0.00 in0.0 mm
03:30 AM 26.5°F-3.1°C 16.3°F-8.7°C 65% 9.0 mph WNW14.5 kmh WNW 11.0 mph17.7 kmh 30.27 in1025.1 mb 0.00 in0.0 mm 0.00 in/hr0.0 mm/hr 0.00 in0.0 mm
03:35 AM 26.5°F-3.1°C 16.3°F-8.7°C 65% 8.0 mph NW12.9 kmh NW 13.0 mph20.9 kmh 30.27 in1025.1 mb 0.00 in0.0 mm 0.00 in/hr0.0 mm/hr 0.00 in0.0 mm
03:40 AM 26.5°F-3.1°C 16.3°F-8.7°C 65% 5.0 mph NW8.0 kmh NW 10.0 mph16.1 kmh 30.26 in1024.7 mb 0.00 in0.0 mm 0.00 in/hr0.0 mm/hr 0.00 in0.0 mm
03:45 AM 26.5°F-3.1°C 16.3°F-8.7°C 65% 8.0 mph NW12.9 kmh NW 12.0 mph19.3 kmh 30.26 in1024.7 mb 0.00 in0.0 mm 0.00 in/hr0.0 mm/hr 0.00 in0.0 mm
03:50 AM 26.5°F-3.1°C 16.3°F-8.7°C 65% 7.0 mph NW11.3 kmh NW 13.0 mph20.9 kmh 30.26 in1024.7 mb 0.00 in0.0 mm 0.00 in/hr0.0 mm/hr 0.00 in0.0 mm
03:55 AM 26.5°F-3.1°C 16.3°F-8.7°C 65% 8.0 mph NW12.9 kmh NW 12.0 mph19.3 kmh 30.26 in1024.7 mb 0.00 in0.0 mm 0.00 in/hr0.0 mm/hr 0.00 in0.0 mm
04:00 AM 26.5°F-3.1°C 16.3°F-8.7°C 65% 6.0 mph WNW9.7 kmh WNW 13.0 mph20.9 kmh 30.26 in1024.7 mb 0.00 in0.0 mm 0.00 in/hr0.0 mm/hr 0.00 in0.0 mm
04:05 AM 26.4°F-3.1°C 16.2°F-8.8°C 65% 7.0 mph NW11.3 kmh NW 12.0 mph19.3 kmh 30.26 in1024.7 mb 0.00 in0.0 mm 0.00 in/hr0.0 mm/hr 0.00 in0.0 mm
04:10 AM 26.4°F-3.1°C 16.2°F-8.8°C 65% 9.0 mph NW14.5 kmh NW 11.0 mph17.7 kmh 30.26 in1024.7 mb 0.00 in0.0 mm 0.00 in/hr0.0 mm/hr 0.00 in0.0 mm
04:15 AM 26.4°F-3.1°C 16.2°F-8.8°C 65% 7.0 mph NW11.3 kmh NW 12.0 mph19.3 kmh 30.26 in1024.7 mb 0.00 in0.0 mm 0.00 in/hr0.0 mm/hr 0.00 in0.0 mm
04:20 AM 26.3°F-3.2°C 16.1°F-8.8°C 65% 6.0 mph NW9.7 kmh NW 13.0 mph20.9 kmh 30.26 in1024.7 mb 0.00 in0.0 mm 0.00 in/hr0.0 mm/hr 0.00 in0.0 mm
04:25 AM 26.4°F-3.1°C 16.2°F-8.8°C 65% 9.0 mph NW14.5 kmh NW 11.0 mph17.7 kmh 30.26 in1024.7 mb 0.00 in0.0 mm 0.00 in/hr0.0 mm/hr 0.00 in0.0 mm
04:30 AM 26.3°F-3.2°C 16.1°F-8.8°C 65% 7.0 mph NW11.3 kmh NW 13.0 mph20.9 kmh 30.26 in1024.7 mb 0.00 in0.0 mm 0.00 in/hr0.0 mm/hr 0.00 in0.0 mm
04:35 AM 26.3°F-3.2°C 16.1°F-8.8°C 65% 12.0 mph NNW19.3 kmh NNW 13.0 mph20.9 kmh 30.26 in1024.7 mb 0.00 in0.0 mm 0.00 in/hr0.0 mm/hr 0.00 in0.0 mm
04:40 AM 26.3°F-3.2°C 15.8°F-9.0°C 64% 5.0 mph NNW8.0 kmh NNW 13.0 mph20.9 kmh 30.26 in1024.7 mb 0.00 in0.0 mm 0.00 in/hr0.0 mm/hr 0.00 in0.0 mm
04:45 AM 26.2°F-3.2°C 15.7°F-9.1°C 64% 4.0 mph NW6.4 kmh NW 10.0 mph16.1 kmh 30.26 in1024.7 mb 0.00 in0.0 mm 0.00 in/hr0.0 mm/hr 0.00 in0.0 mm
04:50 AM 26.2°F-3.2°C 16.0°F-8.9°C 65% 5.0 mph N8.0 kmh N 12.0 mph19.3 kmh 30.26 in1024.7 mb 0.00 in0.0 mm 0.00 in/hr0.0 mm/hr 0.00 in0.0 mm
04:55 AM 26.2°F-3.2°C 15.7°F-9.1°C 64% 15.0 mph NW24.1 kmh NW 16.0 mph25.7 kmh 30.26 in1024.7 mb 0.00 in0.0 mm 0.00 in/hr0.0 mm/hr 0.00 in0.0 mm
05:00 AM 26.2°F-3.2°C 15.7°F-9.1°C 64% 14.0 mph NW22.5 kmh NW 16.0 mph25.7 kmh 30.26 in1024.7 mb 0.00 in0.0 mm 0.00 in/hr0.0 mm/hr 0.00 in0.0 mm
05:05 AM 26.3°F-3.2°C 15.8°F-9.0°C 64% 9.0 mph NNW14.5 kmh NNW 17.0 mph27.4 kmh 30.26 in1024.7 mb 0.00 in0.0 mm 0.00 in/hr0.0 mm/hr 0.00 in0.0 mm
05:10 AM 26.3°F-3.2°C 15.8°F-9.0°C 64% 10.0 mph NNW16.1 kmh NNW 15.0 mph24.1 kmh 30.26 in1024.7 mb 0.00 in0.0 mm 0.00 in/hr0.0 mm/hr 0.00 in0.0 mm
05:15 AM 26.3°F-3.2°C 15.8°F-9.0°C 64% 12.0 mph NNW19.3 kmh NNW 16.0 mph25.7 kmh 30.26 in1024.7 mb 0.00 in0.0 mm 0.00 in/hr0.0 mm/hr 0.00 in0.0 mm
05:20 AM 26.4°F-3.1°C 15.8°F-9.0°C 64% 5.0 mph NNW8.0 kmh NNW 15.0 mph24.1 kmh 30.27 in1025.1 mb 0.00 in0.0 mm 0.00 in/hr0.0 mm/hr 0.00 in0.0 mm
05:25 AM 26.5°F-3.1°C 16.3°F-8.7°C 65% 12.0 mph NW19.3 kmh NW 13.0 mph20.9 kmh 30.27 in1025.1 mb 0.00 in0.0 mm 0.00 in/hr0.0 mm/hr 0.00 in0.0 mm
05:30 AM 26.5°F-3.1°C 15.9°F-8.9°C 64% 10.0 mph NNW16.1 kmh NNW 15.0 mph24.1 kmh 30.27 in1025.1 mb 0.00 in0.0 mm 0.00 in/hr0.0 mm/hr 0.00 in0.0 mm
05:35 AM 26.6°F-3.0°C 16.0°F-8.9°C 64% 9.0 mph NW14.5 kmh NW 13.0 mph20.9 kmh 30.27 in1025.1 mb 0.00 in0.0 mm 0.00 in/hr0.0 mm/hr 0.00 in0.0 mm
05:40 AM 26.6°F-3.0°C 16.0°F-8.9°C 64% 7.0 mph NW11.3 kmh NW 17.0 mph27.4 kmh 30.27 in1025.1 mb 0.00 in0.0 mm 0.00 in/hr0.0 mm/hr 0.00 in0.0 mm
05:45 AM 26.6°F-3.0°C 16.0°F-8.9°C 64% 3.0 mph NW4.8 kmh NW 9.0 mph14.5 kmh 30.27 in1025.1 mb 0.00 in0.0 mm 0.00 in/hr0.0 mm/hr 0.00 in0.0 mm
05:50 AM 26.6°F-3.0°C 16.0°F-8.9°C 64% 5.0 mph NW8.0 kmh NW 11.0 mph17.7 kmh 30.27 in1025.1 mb 0.00 in0.0 mm 0.00 in/hr0.0 mm/hr 0.00 in0.0 mm
05:55 AM 26.5°F-3.1°C 16.3°F-8.7°C 65% 4.0 mph NW6.4 kmh NW 7.0 mph11.3 kmh 30.27 in1025.1 mb 0.00 in0.0 mm 0.00 in/hr0.0 mm/hr 0.00 in0.0 mm
06:00 AM 26.5°F-3.1°C 16.3°F-8.7°C 65% 5.0 mph N8.0 kmh N 8.0 mph12.9 kmh 30.27 in1025.1 mb 0.00 in0.0 mm 0.00 in/hr0.0 mm/hr 0.00 in0.0 mm
06:05 AM 26.4°F-3.1°C 16.2°F-8.8°C 65% 3.0 mph NW4.8 kmh NW 6.0 mph9.7 kmh 30.27 in1025.1 mb 0.00 in0.0 mm 0.00 in/hr0.0 mm/hr 0.00 in0.0 mm
06:10 AM 26.4°F-3.1°C 16.2°F-8.8°C 65% 3.0 mph W4.8 kmh W 6.0 mph9.7 kmh 30.27 in1025.1 mb 0.00 in0.0 mm 0.00 in/hr0.0 mm/hr 0.00 in0.0 mm
06:15 AM 26.3°F-3.2°C 16.5°F-8.6°C 66% 5.0 mph N8.0 kmh N 7.0 mph11.3 kmh 30.27 in1025.1 mb 0.00 in0.0 mm 0.00 in/hr0.0 mm/hr 0.00 in0.0 mm
06:20 AM 26.2°F-3.2°C 16.4°F-8.7°C 66% 4.0 mph NW6.4 kmh NW 8.0 mph12.9 kmh 30.27 in1025.1 mb 0.00 in0.0 mm 0.00 in/hr0.0 mm/hr 0.00 in0.0 mm
06:25 AM 26.1°F-3.3°C 16.3°F-8.7°C 66% 6.0 mph NNW9.7 kmh NNW 7.0 mph11.3 kmh 30.27 in1025.1 mb 0.00 in0.0 mm 0.00 in/hr0.0 mm/hr 0.00 in0.0 mm
06:30 AM 26.0°F-3.3°C 16.2°F-8.8°C 66% 6.0 mph NW9.7 kmh NW 8.0 mph12.9 kmh 30.27 in1025.1 mb 0.00 in0.0 mm 0.00 in/hr0.0 mm/hr 0.00 in0.0 mm
06:35 AM 26.0°F-3.3°C 16.5°F-8.6°C 67% 6.0 mph NW9.7 kmh NW 9.0 mph14.5 kmh 30.27 in1025.1 mb 0.00 in0.0 mm 0.00 in/hr0.0 mm/hr 0.00 in0.0 mm
06:40 AM 25.9°F-3.4°C 16.4°F-8.7°C 67% 5.0 mph NW8.0 kmh NW 8.0 mph12.9 kmh 30.27 in1025.1 mb 0.00 in0.0 mm 0.00 in/hr0.0 mm/hr 0.00 in0.0 mm
06:45 AM 25.8°F-3.4°C 16.7°F-8.5°C 68% 3.0 mph NW4.8 kmh NW 8.0 mph12.9 kmh 30.27 in1025.1 mb 0.00 in0.0 mm 0.00 in/hr0.0 mm/hr 0.00 in0.0 mm
06:50 AM 25.7°F-3.5°C 16.6°F-8.6°C 68% 4.0 mph NW6.4 kmh NW 7.0 mph11.3 kmh 30.27 in1025.1 mb 0.00 in0.0 mm 0.00 in/hr0.0 mm/hr 0.00 in0.0 mm
06:55 AM 25.7°F-3.5°C 16.6°F-8.6°C 68% 3.0 mph NW4.8 kmh NW 8.0 mph12.9 kmh 30.27 in1025.1 mb 0.00 in0.0 mm 0.00 in/hr0.0 mm/hr 0.00 in0.0 mm
07:00 AM 25.6°F-3.6°C 16.5°F-8.6°C 68% 5.0 mph NW8.0 kmh NW 9.0 mph14.5 kmh 30.27 in1025.1 mb 0.00 in0.0 mm 0.00 in/hr0.0 mm/hr 0.00 in0.0 mm
07:05 AM 25.5°F-3.6°C 16.4°F-8.7°C 68% 4.0 mph WNW6.4 kmh WNW 7.0 mph11.3 kmh 30.27 in1025.1 mb 0.00 in0.0 mm 0.00 in/hr0.0 mm/hr 0.00 in0.0 mm
07:10 AM 25.5°F-3.6°C 16.4°F-8.7°C 68% 1.0 mph NW1.6 kmh NW 7.0 mph11.3 kmh 30.27 in1025.1 mb 0.00 in0.0 mm 0.00 in/hr0.0 mm/hr 0.00 in0.0 mm
07:15 AM 25.4°F-3.7°C 16.3°F-8.7°C 68% 4.0 mph NW6.4 kmh NW 6.0 mph9.7 kmh 30.27 in1025.1 mb 0.00 in0.0 mm 0.00 in/hr0.0 mm/hr 0.00 in0.0 mm
07:20 AM 25.3°F-3.7°C 16.2°F-8.8°C 68% 1.0 mph NW1.6 kmh NW 5.0 mph8.0 kmh 30.27 in1025.1 mb 0.00 in0.0 mm 0.00 in/hr0.0 mm/hr 0.00 in0.0 mm
07:25 AM 25.2°F-3.8°C 16.1°F-8.8°C 68% 3.0 mph NW4.8 kmh NW 6.0 mph9.7 kmh 30.27 in1025.1 mb 0.00 in0.0 mm 0.00 in/hr0.0 mm/hr 0.00 in0.0 mm
07:30 AM 25.2°F-3.8°C 16.4°F-8.7°C 69% Calm Calm 4.0 mph6.4 kmh 30.28 in1025.4 mb 0.00 in0.0 mm 0.00 in/hr0.0 mm/hr 0.00 in0.0 mm
07:35 AM 25.2°F-3.8°C 16.4°F-8.7°C 69% Calm Calm 3.0 mph4.8 kmh 30.28 in1025.4 mb 0.00 in0.0 mm 0.00 in/hr0.0 mm/hr 0.00 in0.0 mm
07:40 AM 25.3°F-3.7°C 16.5°F-8.6°C 69% Calm Calm 3.0 mph4.8 kmh 30.28 in1025.4 mb 0.00 in0.0 mm 0.00 in/hr0.0 mm/hr 0.00 in0.0 mm
07:45 AM 25.3°F-3.7°C 16.5°F-8.6°C 69% 8.0 mph NNW12.9 kmh NNW 8.0 mph12.9 kmh 30.28 in1025.4 mb 0.00 in0.0 mm 0.00 in/hr0.0 mm/hr 0.00 in0.0 mm
07:50 AM 25.4°F-3.7°C 16.6°F-8.6°C 69% 2.0 mph NW3.2 kmh NW 8.0 mph12.9 kmh 30.27 in1025.1 mb 0.00 in0.0 mm 0.00 in/hr0.0 mm/hr 0.00 in0.0 mm
07:55 AM 25.6°F-3.6°C 16.8°F-8.4°C 69% 2.0 mph NW3.2 kmh NW 5.0 mph8.0 kmh 30.28 in1025.4 mb 0.00 in0.0 mm 0.00 in/hr0.0 mm/hr 0.00 in0.0 mm
08:00 AM 25.8°F-3.4°C 17.0°F-8.3°C 69% 2.0 mph WNW3.2 kmh WNW 5.0 mph8.0 kmh 30.27 in1025.1 mb 0.00 in0.0 mm 0.00 in/hr0.0 mm/hr 0.00 in0.0 mm
08:05 AM 26.0°F-3.3°C 17.2°F-8.2°C 69% 5.0 mph NW8.0 kmh NW 8.0 mph12.9 kmh 30.28 in1025.4 mb 0.00 in0.0 mm 0.00 in/hr0.0 mm/hr 0.00 in0.0 mm
08:10 AM 26.2°F-3.2°C 17.4°F-8.1°C 69% 1.0 mph NW1.6 kmh NW 8.0 mph12.9 kmh 30.27 in1025.1 mb 0.00 in0.0 mm 0.00 in/hr0.0 mm/hr 0.00 in0.0 mm
08:15 AM 26.3°F-3.2°C 17.1°F-8.3°C 68% 1.0 mph WNW1.6 kmh WNW 6.0 mph9.7 kmh 30.28 in1025.4 mb 0.00 in0.0 mm 0.00 in/hr0.0 mm/hr 0.00 in0.0 mm
08:20 AM 26.4°F-3.1°C 17.2°F-8.2°C 68% 3.0 mph NW4.8 kmh NW 3.0 mph4.8 kmh 30.28 in1025.4 mb 0.00 in0.0 mm 0.00 in/hr0.0 mm/hr 0.00 in0.0 mm
08:25 AM 26.5°F-3.1°C 17.3°F-8.2°C 68% Calm Calm 3.0 mph4.8 kmh 30.28 in1025.4 mb 0.00 in0.0 mm 0.00 in/hr0.0 mm/hr 0.00 in0.0 mm
08:30 AM 26.6°F-3.0°C 17.1°F-8.3°C 67% 1.0 mph NW1.6 kmh NW 4.0 mph6.4 kmh 30.28 in1025.4 mb 0.00 in0.0 mm 0.00 in/hr0.0 mm/hr 0.00 in0.0 mm
08:35 AM 26.7°F-2.9°C 17.2°F-8.2°C 67% 1.0 mph NNW1.6 kmh NNW 3.0 mph4.8 kmh 30.28 in1025.4 mb 0.00 in0.0 mm 0.00 in/hr0.0 mm/hr 0.00 in0.0 mm
08:40 AM 26.8°F-2.9°C 17.3°F-8.2°C 67% 2.0 mph WNW3.2 kmh WNW 4.0 mph6.4 kmh 30.28 in1025.4 mb 0.00 in0.0 mm 0.00 in/hr0.0 mm/hr 0.00 in0.0 mm
08:45 AM 27.0°F-2.8°C 17.5°F-8.1°C 67% 5.0 mph NW8.0 kmh NW 6.0 mph9.7 kmh 30.28 in1025.4 mb 0.00 in0.0 mm 0.00 in/hr0.0 mm/hr 0.00 in0.0 mm
08:50 AM 27.2°F-2.7°C 17.7°F-7.9°C 67% Calm Calm 6.0 mph9.7 kmh 30.28 in1025.4 mb 0.00 in0.0 mm 0.00 in/hr0.0 mm/hr 0.00 in0.0 mm
08:55 AM 27.4°F-2.6°C 17.9°F-7.8°C 67% 6.0 mph NNW9.7 kmh NNW 9.0 mph14.5 kmh 30.28 in1025.4 mb 0.00 in0.0 mm 0.00 in/hr0.0 mm/hr 0.00 in0.0 mm
09:00 AM 27.6°F-2.4°C 17.7°F-7.9°C 66% 4.0 mph N6.4 kmh N 6.0 mph9.7 kmh 30.28 in1025.4 mb 0.00 in0.0 mm 0.00 in/hr0.0 mm/hr 0.00 in0.0 mm
09:05 AM 27.8°F-2.3°C 17.5°F-8.1°C 65% 4.0 mph NW6.4 kmh NW 8.0 mph12.9 kmh 30.28 in1025.4 mb 0.00 in0.0 mm 0.00 in/hr0.0 mm/hr 0.00 in0.0 mm
09:10 AM 28.0°F-2.2°C 17.7°F-7.9°C 65% 6.0 mph N9.7 kmh N 8.0 mph12.9 kmh 30.28 in1025.4 mb 0.00 in0.0 mm 0.00 in/hr0.0 mm/hr 0.00 in0.0 mm
09:15 AM 28.1°F-2.2°C 17.8°F-7.9°C 65% 3.0 mph NW4.8 kmh NW 8.0 mph12.9 kmh 30.28 in1025.4 mb 0.00 in0.0 mm 0.00 in/hr0.0 mm/hr 0.00 in0.0 mm
09:20 AM 28.3°F-2.1°C 18.0°F-7.8°C 65% 4.0 mph NW6.4 kmh NW 6.0 mph9.7 kmh 30.28 in1025.4 mb 0.00 in0.0 mm 0.00 in/hr0.0 mm/hr 0.00 in0.0 mm
09:25 AM 28.6°F-1.9°C 17.9°F-7.8°C 64% 2.0 mph NW3.2 kmh NW 5.0 mph8.0 kmh 30.27 in1025.1 mb 0.00 in0.0 mm 0.00 in/hr0.0 mm/hr 0.00 in0.0 mm
09:30 AM 28.9°F-1.7°C 17.9°F-7.8°C 63% 2.0 mph NW3.2 kmh NW 7.0 mph11.3 kmh 30.27 in1025.1 mb 0.00 in0.0 mm 0.00 in/hr0.0 mm/hr 0.00 in0.0 mm
09:35 AM 29.1°F-1.6°C 17.7°F-7.9°C 62% 6.0 mph NNW9.7 kmh NNW 7.0 mph11.3 kmh 30.27 in1025.1 mb 0.00 in0.0 mm 0.00 in/hr0.0 mm/hr 0.00 in0.0 mm
09:40 AM 29.3°F-1.5°C 17.9°F-7.8°C 62% 4.0 mph NW6.4 kmh NW 8.0 mph12.9 kmh 30.27 in1025.1 mb 0.00 in0.0 mm 0.00 in/hr0.0 mm/hr 0.00 in0.0 mm
09:45 AM 29.7°F-1.3°C 18.2°F-7.7°C 62% 8.0 mph NNW12.9 kmh NNW 12.0 mph19.3 kmh 30.27 in1025.1 mb 0.00 in0.0 mm 0.00 in/hr0.0 mm/hr 0.00 in0.0 mm
09:50 AM 30.2°F-1.0°C 18.0°F-7.8°C 60% 8.0 mph NW12.9 kmh NW 10.0 mph16.1 kmh 30.27 in1025.1 mb 0.00 in0.0 mm 0.00 in/hr0.0 mm/hr 0.00 in0.0 mm
09:55 AM 30.9°F-0.6°C 18.6°F-7.4°C 60% 4.0 mph NE6.4 kmh NE 9.0 mph14.5 kmh 30.27 in1025.1 mb 0.00 in0.0 mm 0.00 in/hr0.0 mm/hr 0.00 in0.0 mm
10:00 AM 31.6°F-0.2°C 18.9°F-7.3°C 59% 4.0 mph NW6.4 kmh NW 10.0 mph16.1 kmh 30.27 in1025.1 mb 0.00 in0.0 mm 0.00 in/hr0.0 mm/hr 0.00 in0.0 mm
10:05 AM 32.3°F0.2°C 18.7°F-7.4°C 57% 7.0 mph NW11.3 kmh NW 9.0 mph14.5 kmh 30.27 in1025.1 mb 0.00 in0.0 mm 0.00 in/hr0.0 mm/hr 0.00 in0.0 mm
10:10 AM 33.4°F0.8°C 18.5°F-7.5°C 54% 5.0 mph NW8.0 kmh NW 9.0 mph14.5 kmh 30.26 in1024.7 mb 0.00 in0.0 mm 0.00 in/hr0.0 mm/hr 0.00 in0.0 mm
10:15 AM 34.0°F1.1°C 18.2°F-7.7°C 52% 3.0 mph W4.8 kmh W 7.0 mph11.3 kmh 30.26 in1024.7 mb 0.00 in0.0 mm 0.00 in/hr0.0 mm/hr 0.00 in0.0 mm
10:20 AM 34.3°F1.3°C 18.5°F-7.5°C 52% 5.0 mph W8.0 kmh W 5.0 mph8.0 kmh 30.26 in1024.7 mb 0.00 in0.0 mm 0.00 in/hr0.0 mm/hr 0.00 in0.0 mm
10:25 AM 34.4°F1.3°C 17.7°F-7.9°C 50% 6.0 mph NW9.7 kmh NW 7.0 mph11.3 kmh 30.26 in1024.7 mb 0.00 in0.0 mm 0.00 in/hr0.0 mm/hr 0.00 in0.0 mm
10:30 AM 34.4°F1.3°C 17.7°F-7.9°C 50% 3.0 mph NW4.8 kmh NW 7.0 mph11.3 kmh 30.26 in1024.7 mb 0.00 in0.0 mm 0.00 in/hr0.0 mm/hr 0.00 in0.0 mm
10:35 AM 34.4°F1.3°C 17.2°F-8.2°C 49% 7.0 mph NW11.3 kmh NW 8.0 mph12.9 kmh 30.25 in1024.4 mb 0.00 in0.0 mm 0.00 in/hr0.0 mm/hr 0.00 in0.0 mm
10:40 AM 34.3°F1.3°C 17.1°F-8.3°C 49% 1.0 mph NW1.6 kmh NW 7.0 mph11.3 kmh 30.26 in1024.7 mb 0.00 in0.0 mm 0.00 in/hr0.0 mm/hr 0.00 in0.0 mm
10:45 AM 34.3°F1.3°C 17.1°F-8.3°C 49% 4.0 mph WNW6.4 kmh WNW 5.0 mph8.0 kmh 30.25 in1024.4 mb 0.00 in0.0 mm 0.00 in/hr0.0 mm/hr 0.00 in0.0 mm
10:50 AM 34.1°F1.2°C 16.9°F-8.4°C 49% 2.0 mph W3.2 kmh W 4.0 mph6.4 kmh 30.25 in1024.4 mb 0.00 in0.0 mm 0.00 in/hr0.0 mm/hr 0.00 in0.0 mm
10:55 AM 33.7°F0.9°C 17.0°F-8.3°C 50% 3.0 mph WNW4.8 kmh WNW 5.0 mph8.0 kmh 30.25 in1024.4 mb 0.00 in0.0 mm 0.00 in/hr0.0 mm/hr 0.00 in0.0 mm
11:00 AM 33.7°F0.9°C 16.1°F-8.8°C 48% 2.0 mph NW3.2 kmh NW 6.0 mph9.7 kmh 30.25 in1024.4 mb 0.00 in0.0 mm 0.00 in/hr0.0 mm/hr 0.00 in0.0 mm
11:05 AM 33.7°F0.9°C 17.0°F-8.3°C 50% 2.0 mph W3.2 kmh W 4.0 mph6.4 kmh 30.24 in1024.0 mb 0.00 in0.0 mm 0.00 in/hr0.0 mm/hr 0.00 in0.0 mm
11:10 AM 33.5°F0.8°C 15.4°F-9.2°C 47% 2.0 mph W3.2 kmh W 5.0 mph8.0 kmh 30.24 in1024.0 mb 0.00 in0.0 mm 0.00 in/hr0.0 mm/hr 0.00 in0.0 mm
11:15 AM 33.5°F0.8°C 16.4°F-8.7°C 49% 4.0 mph W6.4 kmh W 6.0 mph9.7 kmh 30.24 in1024.0 mb 0.00 in0.0 mm 0.00 in/hr0.0 mm/hr 0.00 in0.0 mm
11:20 AM 33.5°F0.8°C 15.4°F-9.2°C 47% 4.0 mph WSW6.4 kmh WSW 5.0 mph8.0 kmh 30.23 in1023.7 mb 0.00 in0.0 mm 0.00 in/hr0.0 mm/hr 0.00 in0.0 mm
11:25 AM 33.2°F0.7°C 16.1°F-8.8°C 49% 4.0 mph WSW6.4 kmh WSW 6.0 mph9.7 kmh 30.23 in1023.7 mb 0.00 in0.0 mm 0.00 in/hr0.0 mm/hr 0.00 in0.0 mm
11:30 AM 33.2°F0.7°C 16.1°F-8.8°C 49% 6.0 mph SW9.7 kmh SW 8.0 mph12.9 kmh 30.23 in1023.7 mb 0.00 in0.0 mm 0.00 in/hr0.0 mm/hr 0.00 in0.0 mm
11:35 AM 33.3°F0.7°C 16.6°F-8.6°C 50% 2.0 mph SW3.2 kmh SW 7.0 mph11.3 kmh 30.23 in1023.7 mb 0.00 in0.0 mm 0.00 in/hr0.0 mm/hr 0.00 in0.0 mm
11:40 AM 33.5°F0.8°C 16.8°F-8.4°C 50% 5.0 mph SW8.0 kmh SW 8.0 mph12.9 kmh 30.22 in1023.4 mb 0.00 in0.0 mm 0.00 in/hr0.0 mm/hr 0.00 in0.0 mm
11:45 AM 33.5°F0.8°C 16.4°F-8.7°C 49% 6.0 mph SSW9.7 kmh SSW 8.0 mph12.9 kmh 30.21 in1023.0 mb 0.00 in0.0 mm 0.00 in/hr0.0 mm/hr 0.00 in0.0 mm
11:50 AM 33.6°F0.9°C 17.8°F-7.9°C 52% 5.0 mph S8.0 kmh S 8.0 mph12.9 kmh 30.21 in1023.0 mb 0.00 in0.0 mm 0.00 in/hr0.0 mm/hr 0.00 in0.0 mm
11:55 AM 33.6°F0.9°C 17.4°F-8.1°C 51% 2.0 mph SE3.2 kmh SE 6.0 mph9.7 kmh 30.21 in1023.0 mb 0.00 in0.0 mm 0.00 in/hr0.0 mm/hr 0.00 in0.0 mm
12:00 PM 33.5°F0.8°C 19.5°F-6.9°C 56% 4.0 mph SSE6.4 kmh SSE 9.0 mph14.5 kmh 30.20 in1022.7 mb 0.00 in0.0 mm 0.00 in/hr0.0 mm/hr 0.00 in0.0 mm
12:05 PM 33.3°F0.7°C 19.7°F-6.8°C 57% 6.0 mph SSW9.7 kmh SSW 7.0 mph11.3 kmh 30.20 in1022.7 mb 0.00 in0.0 mm 0.00 in/hr0.0 mm/hr 0.00 in0.0 mm
12:10 PM 33.0°F0.6°C 19.8°F-6.8°C 58% 6.0 mph SE9.7 kmh SE 7.0 mph11.3 kmh 30.20 in1022.7 mb 0.00 in0.0 mm 0.00 in/hr0.0 mm/hr 0.00 in0.0 mm
12:15 PM 33.0°F0.6°C 19.4°F-7.0°C 57% 1.0 mph SW1.6 kmh SW 8.0 mph12.9 kmh 30.19 in1022.4 mb 0.00 in0.0 mm 0.00 in/hr0.0 mm/hr 0.00 in0.0 mm
12:20 PM 33.3°F0.7°C 20.5°F-6.4°C 59% 4.0 mph SW6.4 kmh SW 6.0 mph9.7 kmh 30.19 in1022.4 mb 0.00 in0.0 mm 0.00 in/hr0.0 mm/hr 0.00 in0.0 mm
12:25 PM 33.7°F0.9°C 20.5°F-6.4°C 58% 2.0 mph SSE3.2 kmh SSE 7.0 mph11.3 kmh 30.19 in1022.4 mb 0.00 in0.0 mm 0.00 in/hr0.0 mm/hr 0.00 in0.0 mm
12:30 PM 34.1°F1.2°C 20.8°F-6.2°C 58% 6.0 mph SSW9.7 kmh SSW 8.0 mph12.9 kmh 30.18 in1022.0 mb 0.00 in0.0 mm 0.00 in/hr0.0 mm/hr 0.00 in0.0 mm
12:35 PM 34.4°F1.3°C 21.5°F-5.8°C 59% 8.0 mph SW12.9 kmh SW 10.0 mph16.1 kmh 30.18 in1022.0 mb 0.00 in0.0 mm 0.00 in/hr0.0 mm/hr 0.00 in0.0 mm
12:40 PM 34.5°F1.4°C 20.8°F-6.2°C 57% 6.0 mph E9.7 kmh E 12.0 mph19.3 kmh 30.18 in1022.0 mb 0.00 in0.0 mm 0.00 in/hr0.0 mm/hr 0.00 in0.0 mm
12:45 PM 34.4°F1.3°C 21.1°F-6.1°C 58% 12.0 mph SSW19.3 kmh SSW 13.0 mph20.9 kmh 30.18 in1022.0 mb 0.00 in0.0 mm 0.00 in/hr0.0 mm/hr 0.00 in0.0 mm
12:50 PM 34.3°F1.3°C 20.6°F-6.3°C 57% 10.0 mph SSW16.1 kmh SSW 14.0 mph22.5 kmh 30.17 in1021.7 mb 0.00 in0.0 mm 0.00 in/hr0.0 mm/hr 0.00 in0.0 mm
12:55 PM 34.4°F1.3°C 20.7°F-6.3°C 57% 14.0 mph S22.5 kmh S 15.0 mph24.1 kmh 30.17 in1021.7 mb 0.00 in0.0 mm 0.00 in/hr0.0 mm/hr 0.00 in0.0 mm
01:00 PM 34.5°F1.4°C 22.0°F-5.6°C 60% 12.0 mph SSW19.3 kmh SSW 14.0 mph22.5 kmh 30.17 in1021.7 mb 0.00 in0.0 mm 0.00 in/hr0.0 mm/hr 0.00 in0.0 mm
01:05 PM 34.3°F1.3°C 21.0°F-6.1°C 58% 8.0 mph SW12.9 kmh SW 15.0 mph24.1 kmh 30.17 in1021.7 mb 0.00 in0.0 mm 0.00 in/hr0.0 mm/hr 0.00 in0.0 mm
01:10 PM 34.6°F1.4°C 22.5°F-5.3°C 61% 13.0 mph SSW20.9 kmh SSW 13.0 mph20.9 kmh 30.16 in1021.3 mb 0.00 in0.0 mm 0.00 in/hr0.0 mm/hr 0.00 in0.0 mm
01:15 PM 34.7°F1.5°C 22.6°F-5.2°C 61% 7.0 mph WSW11.3 kmh WSW 14.0 mph22.5 kmh 30.16 in1021.3 mb 0.00 in0.0 mm 0.00 in/hr0.0 mm/hr 0.00 in0.0 mm
01:20 PM 34.7°F1.5°C 21.4°F-5.9°C 58% 12.0 mph SW19.3 kmh SW 14.0 mph22.5 kmh 30.16 in1021.3 mb 0.00 in0.0 mm 0.00 in/hr0.0 mm/hr 0.00 in0.0 mm
01:25 PM 34.7°F1.5°C 21.4°F-5.9°C 58% 12.0 mph SSW19.3 kmh SSW 15.0 mph24.1 kmh 30.16 in1021.3 mb 0.00 in0.0 mm 0.00 in/hr0.0 mm/hr 0.00 in0.0 mm
01:30 PM 34.8°F1.6°C 22.3°F-5.4°C 60% 10.0 mph SSW16.1 kmh SSW 17.0 mph27.4 kmh 30.16 in1021.3 mb 0.00 in0.0 mm 0.00 in/hr0.0 mm/hr 0.00 in0.0 mm
01:35 PM 34.8°F1.6°C 23.5°F-4.7°C 63% 13.0 mph SSW20.9 kmh SSW 15.0 mph24.1 kmh 30.15 in1021.0 mb 0.00 in0.0 mm 0.00 in/hr0.0 mm/hr 0.00 in0.0 mm
01:40 PM 34.9°F1.6°C 23.6°F-4.7°C 63% 11.0 mph SSW17.7 kmh SSW 15.0 mph24.1 kmh 30.15 in1021.0 mb 0.00 in0.0 mm 0.00 in/hr0.0 mm/hr 0.00 in0.0 mm
01:45 PM 35.2°F1.8°C 23.8°F-4.6°C 63% 12.0 mph SSW19.3 kmh SSW 16.0 mph25.7 kmh 30.15 in1021.0 mb 0.00 in0.0 mm 0.00 in/hr0.0 mm/hr 0.00 in0.0 mm
01:50 PM 35.3°F1.8°C 22.8°F-5.1°C 60% 10.0 mph SSW16.1 kmh SSW 18.0 mph29.0 kmh 30.15 in1021.0 mb 0.00 in0.0 mm 0.00 in/hr0.0 mm/hr 0.00 in0.0 mm
01:55 PM 35.5°F1.9°C 23.0°F-5.0°C 60% 14.0 mph SSW22.5 kmh SSW 16.0 mph25.7 kmh 30.15 in1021.0 mb 0.00 in0.0 mm 0.00 in/hr0.0 mm/hr 0.00 in0.0 mm
02:00 PM 35.6°F2.0°C 23.8°F-4.6°C 62% 14.0 mph SSW22.5 kmh SSW 15.0 mph24.1 kmh 30.14 in1020.7 mb 0.00 in0.0 mm 0.00 in/hr0.0 mm/hr 0.00 in0.0 mm
02:05 PM 35.5°F1.9°C 23.0°F-5.0°C 60% 15.0 mph SW24.1 kmh SW 16.0 mph25.7 kmh 30.14 in1020.7 mb 0.00 in0.0 mm 0.00 in/hr0.0 mm/hr 0.00 in0.0 mm
02:10 PM 35.7°F2.1°C 23.9°F-4.5°C 62% 10.0 mph SW16.1 kmh SW 17.0 mph27.4 kmh 30.14 in1020.7 mb 0.00 in0.0 mm 0.00 in/hr0.0 mm/hr 0.00 in0.0 mm
02:15 PM 35.9°F2.2°C 23.7°F-4.6°C 61% 16.0 mph SSW25.7 kmh SSW 16.0 mph25.7 kmh 30.14 in1020.7 mb 0.00 in0.0 mm 0.00 in/hr0.0 mm/hr 0.00 in0.0 mm
02:20 PM 35.9°F2.2°C 23.3°F-4.8°C 60% 15.0 mph SSW24.1 kmh SSW 19.0 mph30.6 kmh 30.14 in1020.7 mb 0.00 in0.0 mm 0.00 in/hr0.0 mm/hr 0.00 in0.0 mm
02:25 PM 35.9°F2.2°C 22.1°F-5.5°C 57% 14.0 mph SSW22.5 kmh SSW 19.0 mph30.6 kmh 30.13 in1020.3 mb 0.00 in0.0 mm 0.00 in/hr0.0 mm/hr 0.00 in0.0 mm
02:30 PM 36.0°F2.2°C 21.8°F-5.7°C 56% 15.0 mph SSW24.1 kmh SSW 18.0 mph29.0 kmh 30.13 in1020.3 mb 0.00 in0.0 mm 0.00 in/hr0.0 mm/hr 0.00 in0.0 mm
02:35 PM 36.2°F2.3°C 22.0°F-5.6°C 56% 13.0 mph SSW20.9 kmh SSW 18.0 mph29.0 kmh 30.13 in1020.3 mb 0.00 in0.0 mm 0.00 in/hr0.0 mm/hr 0.00 in0.0 mm
02:40 PM 36.4°F2.4°C 22.2°F-5.4°C 56% 11.0 mph SW17.7 kmh SW 17.0 mph27.4 kmh 30.13 in1020.3 mb 0.00 in0.0 mm 0.00 in/hr0.0 mm/hr 0.00 in0.0 mm
02:45 PM 36.4°F2.4°C 21.3°F-5.9°C 54% 15.0 mph SSW24.1 kmh SSW 18.0 mph29.0 kmh 30.13 in1020.3 mb 0.00 in0.0 mm 0.00 in/hr0.0 mm/hr 0.00 in0.0 mm
02:50 PM 36.6°F2.6°C 21.5°F-5.8°C 54% 12.0 mph SW19.3 kmh SW 19.0 mph30.6 kmh 30.12 in1020.0 mb 0.00 in0.0 mm 0.00 in/hr0.0 mm/hr 0.00 in0.0 mm
02:55 PM 36.8°F2.7°C 22.5°F-5.3°C 56% 15.0 mph SW24.1 kmh SW 20.0 mph32.2 kmh 30.12 in1020.0 mb 0.00 in0.0 mm 0.00 in/hr0.0 mm/hr 0.00 in0.0 mm
03:00 PM 36.9°F2.7°C 22.2°F-5.4°C 55% 16.0 mph SSW25.7 kmh SSW 21.0 mph33.8 kmh 30.12 in1020.0 mb 0.00 in0.0 mm 0.00 in/hr0.0 mm/hr 0.00 in0.0 mm
03:05 PM 37.0°F2.8°C 22.7°F-5.2°C 56% 15.0 mph SSW24.1 kmh SSW 19.0 mph30.6 kmh 30.12 in1020.0 mb 0.00 in0.0 mm 0.00 in/hr0.0 mm/hr 0.00 in0.0 mm
03:10 PM 37.0°F2.8°C 23.6°F-4.7°C 58% 18.0 mph SSW29.0 kmh SSW 19.0 mph30.6 kmh 30.12 in1020.0 mb 0.00 in0.0 mm 0.00 in/hr0.0 mm/hr 0.00 in0.0 mm
03:15 PM 36.9°F2.7°C 23.9°F-4.5°C 59% 5.0 mph SW8.0 kmh SW 18.0 mph29.0 kmh 30.12 in1020.0 mb 0.00 in0.0 mm 0.00 in/hr0.0 mm/hr 0.00 in0.0 mm
03:20 PM 36.8°F2.7°C 25.0°F-3.9°C 62% 13.0 mph S20.9 kmh S 18.0 mph29.0 kmh 30.12 in1020.0 mb 0.00 in0.0 mm 0.00 in/hr0.0 mm/hr 0.00 in0.0 mm
03:25 PM 36.7°F2.6°C 23.7°F-4.6°C 59% 14.0 mph SSW22.5 kmh SSW 19.0 mph30.6 kmh 30.12 in1020.0 mb 0.00 in0.0 mm 0.00 in/hr0.0 mm/hr 0.00 in0.0 mm
03:30 PM 36.9°F2.7°C 24.3°F-4.3°C 60% 12.0 mph S19.3 kmh S 18.0 mph29.0 kmh 30.12 in1020.0 mb 0.00 in0.0 mm 0.00 in/hr0.0 mm/hr 0.00 in0.0 mm
03:35 PM 37.0°F2.8°C 25.2°F-3.8°C 62% 13.0 mph SSW20.9 kmh SSW 18.0 mph29.0 kmh 30.12 in1020.0 mb 0.00 in0.0 mm 0.00 in/hr0.0 mm/hr 0.00 in0.0 mm
03:40 PM 37.0°F2.8°C 24.4°F-4.2°C 60% 13.0 mph SSW20.9 kmh SSW 19.0 mph30.6 kmh 30.12 in1020.0 mb 0.00 in0.0 mm 0.00 in/hr0.0 mm/hr 0.00 in0.0 mm
03:45 PM 37.0°F2.8°C 25.5°F-3.6°C 63% 14.0 mph SW22.5 kmh SW 18.0 mph29.0 kmh 30.12 in1020.0 mb 0.00 in0.0 mm 0.00 in/hr0.0 mm/hr 0.00 in0.0 mm
03:50 PM 37.0°F2.8°C 25.2°F-3.8°C 62% 15.0 mph SW24.1 kmh SW 18.0 mph29.0 kmh 30.12 in1020.0 mb 0.00 in0.0 mm 0.00 in/hr0.0 mm/hr 0.00 in0.0 mm
03:55 PM 37.1°F2.8°C 25.6°F-3.6°C 63% 17.0 mph SSW27.4 kmh SSW 17.0 mph27.4 kmh 30.12 in1020.0 mb 0.00 in0.0 mm 0.00 in/hr0.0 mm/hr 0.00 in0.0 mm
04:00 PM 37.1°F2.8°C 26.8°F-2.9°C 66% 11.0 mph SSW17.7 kmh SSW 18.0 mph29.0 kmh 30.12 in1020.0 mb 0.00 in0.0 mm 0.00 in/hr0.0 mm/hr 0.00 in0.0 mm
04:05 PM 37.1°F2.8°C 26.4°F-3.1°C 65% 4.0 mph ENE6.4 kmh ENE 17.0 mph27.4 kmh 30.11 in1019.6 mb 0.00 in0.0 mm 0.00 in/hr0.0 mm/hr 0.00 in0.0 mm
04:10 PM 37.2°F2.9°C 26.1°F-3.3°C 64% 6.0 mph S9.7 kmh S 20.0 mph32.2 kmh 30.11 in1019.6 mb 0.00 in0.0 mm 0.00 in/hr0.0 mm/hr 0.00 in0.0 mm
04:15 PM 37.2°F2.9°C 26.1°F-3.3°C 64% 7.0 mph SE11.3 kmh SE 17.0 mph27.4 kmh 30.11 in1019.6 mb 0.00 in0.0 mm 0.00 in/hr0.0 mm/hr 0.00 in0.0 mm
04:20 PM 37.3°F2.9°C 26.9°F-2.8°C 66% 6.0 mph SW9.7 kmh SW 19.0 mph30.6 kmh 30.11 in1019.6 mb 0.00 in0.0 mm 0.00 in/hr0.0 mm/hr 0.00 in0.0 mm
04:25 PM 37.5°F3.1°C 27.1°F-2.7°C 66% 17.0 mph SSW27.4 kmh SSW 22.0 mph35.4 kmh 30.11 in1019.6 mb 0.00 in0.0 mm 0.00 in/hr0.0 mm/hr 0.00 in0.0 mm
04:30 PM 37.6°F3.1°C 27.6°F-2.4°C 67% 12.0 mph SW19.3 kmh SW 19.0 mph30.6 kmh 30.11 in1019.6 mb 0.00 in0.0 mm 0.00 in/hr0.0 mm/hr 0.00 in0.0 mm
04:35 PM 37.8°F3.2°C 27.4°F-2.6°C 66% 13.0 mph SW20.9 kmh SW 18.0 mph29.0 kmh 30.10 in1019.3 mb 0.00 in0.0 mm 0.00 in/hr0.0 mm/hr 0.00 in0.0 mm
04:40 PM 37.9°F3.3°C 27.5°F-2.5°C 66% 4.0 mph NE6.4 kmh NE 14.0 mph22.5 kmh 30.10 in1019.3 mb 0.00 in0.0 mm 0.00 in/hr0.0 mm/hr 0.00 in0.0 mm
04:45 PM 38.0°F3.3°C 28.7°F-1.8°C 69% 5.0 mph WNW8.0 kmh WNW 16.0 mph25.7 kmh 30.10 in1019.3 mb 0.00 in0.0 mm 0.00 in/hr0.0 mm/hr 0.00 in0.0 mm
04:50 PM 38.2°F3.4°C 28.5°F-1.9°C 68% 8.0 mph NE12.9 kmh NE 18.0 mph29.0 kmh 30.10 in1019.3 mb 0.00 in0.0 mm 0.00 in/hr0.0 mm/hr 0.00 in0.0 mm
04:55 PM 38.4°F3.6°C 28.4°F-2.0°C 67% 9.0 mph W14.5 kmh W 15.0 mph24.1 kmh 30.10 in1019.3 mb 0.00 in0.0 mm 0.00 in/hr0.0 mm/hr 0.00 in0.0 mm
05:00 PM 38.7°F3.7°C 28.3°F-2.1°C 66% 15.0 mph S24.1 kmh S 19.0 mph30.6 kmh 30.10 in1019.3 mb 0.00 in0.0 mm 0.00 in/hr0.0 mm/hr 0.00 in0.0 mm
05:05 PM 39.1°F3.9°C 27.1°F-2.7°C 62% 14.0 mph SSW22.5 kmh SSW 19.0 mph30.6 kmh 30.10 in1019.3 mb 0.00 in0.0 mm 0.00 in/hr0.0 mm/hr 0.00 in0.0 mm
05:10 PM 39.4°F4.1°C 23.7°F-4.6°C 53% 20.0 mph SSW32.2 kmh SSW 21.0 mph33.8 kmh 30.10 in1019.3 mb 0.00 in0.0 mm 0.00 in/hr0.0 mm/hr 0.00 in0.0 mm
05:15 PM 39.7°F4.3°C 22.6°F-5.2°C 50% 15.0 mph SW24.1 kmh SW 21.0 mph33.8 kmh 30.10 in1019.3 mb 0.00 in0.0 mm 0.00 in/hr0.0 mm/hr 0.00 in0.0 mm
05:20 PM 39.9°F4.4°C 22.3°F-5.4°C 49% 21.0 mph SSW33.8 kmh SSW 24.0 mph38.6 kmh 30.10 in1019.3 mb 0.00 in0.0 mm 0.00 in/hr0.0 mm/hr 0.00 in0.0 mm
05:25 PM 40.1°F4.5°C 24.3°F-4.3°C 53% 17.0 mph SSW27.4 kmh SSW 25.0 mph40.2 kmh 30.10 in1019.3 mb 0.00 in0.0 mm 0.00 in/hr0.0 mm/hr 0.00 in0.0 mm
05:30 PM 40.0°F4.4°C 21.4°F-5.9°C 47% 19.0 mph SSW30.6 kmh SSW 28.0 mph45.1 kmh 30.09 in1019.0 mb 0.00 in0.0 mm 0.00 in/hr0.0 mm/hr 0.00 in0.0 mm
05:35 PM 40.1°F4.5°C 23.4°F-4.8°C 51% 23.0 mph SSW37.0 kmh SSW 24.0 mph38.6 kmh 30.09 in1019.0 mb 0.00 in0.0 mm 0.00 in/hr0.0 mm/hr 0.00 in0.0 mm
05:40 PM 40.2°F4.6°C 23.0°F-5.0°C 50% 19.0 mph SW30.6 kmh SW 26.0 mph41.8 kmh 30.09 in1019.0 mb 0.00 in0.0 mm 0.00 in/hr0.0 mm/hr 0.00 in0.0 mm
05:45 PM 40.1°F4.5°C 23.4°F-4.8°C 51% 22.0 mph SW35.4 kmh SW 26.0 mph41.8 kmh 30.09 in1019.0 mb 0.00 in0.0 mm 0.00 in/hr0.0 mm/hr 0.00 in0.0 mm
05:50 PM 40.0°F4.4°C 23.3°F-4.8°C 51% 24.0 mph SW38.6 kmh SW 25.0 mph40.2 kmh 30.09 in1019.0 mb 0.00 in0.0 mm 0.00 in/hr0.0 mm/hr 0.00 in0.0 mm
05:55 PM 40.0°F4.4°C 25.1°F-3.8°C 55% 23.0 mph SSW37.0 kmh SSW 26.0 mph41.8 kmh 30.09 in1019.0 mb 0.00 in0.0 mm 0.00 in/hr0.0 mm/hr 0.00 in0.0 mm
06:00 PM 39.9°F4.4°C 24.1°F-4.4°C 53% 22.0 mph SSW35.4 kmh SSW 30.0 mph48.3 kmh 30.09 in1019.0 mb 0.00 in0.0 mm 0.00 in/hr0.0 mm/hr 0.00 in0.0 mm
06:05 PM 39.7°F4.3°C 23.9°F-4.5°C 53% 20.0 mph SW32.2 kmh SW 27.0 mph43.5 kmh 30.09 in1019.0 mb 0.00 in0.0 mm 0.00 in/hr0.0 mm/hr 0.00 in0.0 mm
06:10 PM 39.6°F4.2°C 25.6°F-3.6°C 57% 24.0 mph SSW38.6 kmh SSW 28.0 mph45.1 kmh 30.09 in1019.0 mb 0.00 in0.0 mm 0.00 in/hr0.0 mm/hr 0.00 in0.0 mm
06:15 PM 39.5°F4.2°C 26.3°F-3.2°C 59% 24.0 mph SSW38.6 kmh SSW 30.0 mph48.3 kmh 30.09 in1019.0 mb 0.00 in0.0 mm 0.00 in/hr0.0 mm/hr 0.00 in0.0 mm
06:20 PM 39.2°F4.0°C 25.6°F-3.6°C 58% 24.0 mph SW38.6 kmh SW 29.0 mph46.7 kmh 30.09 in1019.0 mb 0.00 in0.0 mm 0.00 in/hr0.0 mm/hr 0.00 in0.0 mm
06:25 PM 39.1°F3.9°C 25.5°F-3.6°C 58% 24.0 mph SW38.6 kmh SW 29.0 mph46.7 kmh 30.09 in1019.0 mb 0.00 in0.0 mm 0.00 in/hr0.0 mm/hr 0.00 in0.0 mm
06:30 PM 39.1°F3.9°C 26.4°F-3.1°C 60% 24.0 mph SW38.6 kmh SW 32.0 mph51.5 kmh 30.09 in1019.0 mb 0.00 in0.0 mm 0.00 in/hr0.0 mm/hr 0.00 in0.0 mm
06:35 PM 39.0°F3.9°C 26.7°F-2.9°C 61% 19.0 mph SSW30.6 kmh SSW 29.0 mph46.7 kmh 30.09 in1019.0 mb 0.00 in0.0 mm 0.00 in/hr0.0 mm/hr 0.00 in0.0 mm
06:40 PM 38.9°F3.8°C 26.2°F-3.2°C 60% 24.0 mph WSW38.6 kmh WSW 26.0 mph41.8 kmh 30.09 in1019.0 mb 0.00 in0.0 mm 0.00 in/hr0.0 mm/hr 0.00 in0.0 mm
06:45 PM 38.8°F3.8°C 26.5°F-3.1°C 61% 22.0 mph SW35.4 kmh SW 28.0 mph45.1 kmh 30.09 in1019.0 mb 0.00 in0.0 mm 0.00 in/hr0.0 mm/hr 0.00 in0.0 mm
06:50 PM 38.9°F3.8°C 27.0°F-2.8°C 62% 21.0 mph SW33.8 kmh SW 27.0 mph43.5 kmh 30.09 in1019.0 mb 0.00 in0.0 mm 0.00 in/hr0.0 mm/hr 0.00 in0.0 mm
06:55 PM 38.8°F3.8°C 25.7°F-3.5°C 59% 23.0 mph SW37.0 kmh SW 27.0 mph43.5 kmh 30.08 in1018.6 mb 0.00 in0.0 mm 0.00 in/hr0.0 mm/hr 0.00 in0.0 mm
07:00 PM 39.0°F3.9°C 27.1°F-2.7°C 62% 24.0 mph SW38.6 kmh SW 28.0 mph45.1 kmh 30.08 in1018.6 mb 0.00 in0.0 mm 0.00 in/hr0.0 mm/hr 0.00 in0.0 mm
07:05 PM 39.2°F4.0°C 28.0°F-2.2°C 64% 22.0 mph SW35.4 kmh SW 30.0 mph48.3 kmh 30.08 in1018.6 mb 0.00 in0.0 mm 0.00 in/hr0.0 mm/hr 0.00 in0.0 mm
07:10 PM 39.1°F3.9°C 27.1°F-2.7°C 62% 29.0 mph SSW46.7 kmh SSW 29.0 mph46.7 kmh 30.08 in1018.6 mb 0.00 in0.0 mm 0.00 in/hr0.0 mm/hr 0.00 in0.0 mm
07:15 PM 39.1°F3.9°C 27.5°F-2.5°C 63% 26.0 mph SW41.8 kmh SW 29.0 mph46.7 kmh 30.08 in1018.6 mb 0.00 in0.0 mm 0.00 in/hr0.0 mm/hr 0.00 in0.0 mm
07:20 PM 39.1°F3.9°C 27.9°F-2.3°C 64% 22.0 mph SW35.4 kmh SW 27.0 mph43.5 kmh 30.08 in1018.6 mb 0.00 in0.0 mm 0.00 in/hr0.0 mm/hr 0.00 in0.0 mm
07:25 PM 39.0°F3.9°C 26.7°F-2.9°C 61% 20.0 mph SW32.2 kmh SW 31.0 mph49.9 kmh 30.08 in1018.6 mb 0.00 in0.0 mm 0.00 in/hr0.0 mm/hr 0.00 in0.0 mm
07:30 PM 38.9°F3.8°C 27.7°F-2.4°C 64% 24.0 mph SSW38.6 kmh SSW 30.0 mph48.3 kmh 30.08 in1018.6 mb 0.00 in0.0 mm 0.00 in/hr0.0 mm/hr 0.00 in0.0 mm
07:35 PM 38.8°F3.8°C 27.6°F-2.4°C 64% 27.0 mph SW43.5 kmh SW 30.0 mph48.3 kmh 30.07 in1018.3 mb 0.00 in0.0 mm 0.00 in/hr0.0 mm/hr 0.00 in0.0 mm
07:40 PM 38.7°F3.7°C 27.2°F-2.7°C 63% 17.0 mph SSW27.4 kmh SSW 28.0 mph45.1 kmh 30.07 in1018.3 mb 0.00 in0.0 mm 0.00 in/hr0.0 mm/hr 0.00 in0.0 mm
07:45 PM 38.6°F3.7°C 27.4°F-2.6°C 64% 21.0 mph SW33.8 kmh SW 25.0 mph40.2 kmh 30.07 in1018.3 mb 0.00 in0.0 mm 0.00 in/hr0.0 mm/hr 0.00 in0.0 mm
07:50 PM 38.5°F3.6°C 25.8°F-3.4°C 60% 21.0 mph SW33.8 kmh SW 24.0 mph38.6 kmh 30.06 in1017.9 mb 0.00 in0.0 mm 0.00 in/hr0.0 mm/hr 0.00 in0.0 mm
07:55 PM 38.6°F3.7°C 27.1°F-2.7°C 63% 21.0 mph SW33.8 kmh SW 24.0 mph38.6 kmh 30.06 in1017.9 mb 0.00 in0.0 mm 0.00 in/hr0.0 mm/hr 0.00 in0.0 mm
08:00 PM 38.6°F3.7°C 26.7°F-2.9°C 62% 21.0 mph SW33.8 kmh SW 23.0 mph37.0 kmh 30.06 in1017.9 mb 0.00 in0.0 mm 0.00 in/hr0.0 mm/hr 0.00 in0.0 mm
08:05 PM 38.5°F3.6°C 26.6°F-3.0°C 62% 23.0 mph SW37.0 kmh SW 24.0 mph38.6 kmh 30.06 in1017.9 mb 0.00 in0.0 mm 0.00 in/hr0.0 mm/hr 0.00 in0.0 mm
08:10 PM 38.5°F3.6°C 25.8°F-3.4°C 60% 20.0 mph SW32.2 kmh SW 27.0 mph43.5 kmh 30.06 in1017.9 mb 0.00 in0.0 mm 0.00 in/hr0.0 mm/hr 0.00 in0.0 mm
08:15 PM 38.4°F3.6°C 25.7°F-3.5°C 60% 24.0 mph SW38.6 kmh SW 26.0 mph41.8 kmh 30.06 in1017.9 mb 0.00 in0.0 mm 0.00 in/hr0.0 mm/hr 0.00 in0.0 mm
08:20 PM 38.3°F3.5°C 25.6°F-3.6°C 60% 22.0 mph SSW35.4 kmh SSW 24.0 mph38.6 kmh 30.06 in1017.9 mb 0.00 in0.0 mm 0.00 in/hr0.0 mm/hr 0.00 in0.0 mm
08:25 PM 38.4°F3.6°C 26.5°F-3.1°C 62% 20.0 mph SSW32.2 kmh SSW 26.0 mph41.8 kmh 30.05 in1017.6 mb 0.00 in0.0 mm 0.00 in/hr0.0 mm/hr 0.00 in0.0 mm
08:30 PM 38.4°F3.6°C 26.1°F-3.3°C 61% 18.0 mph SW29.0 kmh SW 24.0 mph38.6 kmh 30.05 in1017.6 mb 0.00 in0.0 mm 0.00 in/hr0.0 mm/hr 0.00 in0.0 mm
08:35 PM 38.3°F3.5°C 26.0°F-3.3°C 61% 16.0 mph SW25.7 kmh SW 25.0 mph40.2 kmh 30.05 in1017.6 mb 0.00 in0.0 mm 0.00 in/hr0.0 mm/hr 0.00 in0.0 mm
08:40 PM 38.2°F3.4°C 25.5°F-3.6°C 60% 22.0 mph SW35.4 kmh SW 30.0 mph48.3 kmh 30.05 in1017.6 mb 0.00 in0.0 mm 0.00 in/hr0.0 mm/hr 0.00 in0.0 mm
08:45 PM 38.1°F3.4°C 25.0°F-3.9°C 59% 18.0 mph SW29.0 kmh SW 28.0 mph45.1 kmh 30.05 in1017.6 mb 0.00 in0.0 mm 0.00 in/hr0.0 mm/hr 0.00 in0.0 mm
08:50 PM 38.2°F3.4°C 26.3°F-3.2°C 62% 21.0 mph SW33.8 kmh SW 27.0 mph43.5 kmh 30.05 in1017.6 mb 0.00 in0.0 mm 0.00 in/hr0.0 mm/hr 0.00 in0.0 mm
08:55 PM 38.2°F3.4°C 24.7°F-4.1°C 58% 20.0 mph SW32.2 kmh SW 27.0 mph43.5 kmh 30.05 in1017.6 mb 0.00 in0.0 mm 0.00 in/hr0.0 mm/hr 0.00 in0.0 mm
09:00 PM 38.1°F3.4°C 25.0°F-3.9°C 59% 21.0 mph SW33.8 kmh SW 24.0 mph38.6 kmh 30.05 in1017.6 mb 0.00 in0.0 mm 0.00 in/hr0.0 mm/hr 0.00 in0.0 mm
09:05 PM 38.0°F3.3°C 24.5°F-4.2°C 58% 24.0 mph SW38.6 kmh SW 27.0 mph43.5 kmh 30.05 in1017.6 mb 0.00 in0.0 mm 0.00 in/hr0.0 mm/hr 0.00 in0.0 mm
09:10 PM 37.9°F3.3°C 24.0°F-4.4°C 57% 24.0 mph SW38.6 kmh SW 29.0 mph46.7 kmh 30.05 in1017.6 mb 0.00 in0.0 mm 0.00 in/hr0.0 mm/hr 0.00 in0.0 mm
09:15 PM 38.0°F3.3°C 24.5°F-4.2°C 58% 17.0 mph SW27.4 kmh SW 26.0 mph41.8 kmh 30.04 in1017.3 mb 0.00 in0.0 mm 0.00 in/hr0.0 mm/hr 0.00 in0.0 mm
09:20 PM 37.8°F3.2°C 24.7°F-4.1°C 59% 23.0 mph SW37.0 kmh SW 24.0 mph38.6 kmh 30.04 in1017.3 mb 0.00 in0.0 mm 0.00 in/hr0.0 mm/hr 0.00 in0.0 mm
09:25 PM 37.9°F3.3°C 25.2°F-3.8°C 60% 17.0 mph SW27.4 kmh SW 24.0 mph38.6 kmh 30.04 in1017.3 mb 0.00 in0.0 mm 0.00 in/hr0.0 mm/hr 0.00 in0.0 mm
09:30 PM 37.9°F3.3°C 25.6°F-3.6°C 61% 22.0 mph SW35.4 kmh SW 26.0 mph41.8 kmh 30.04 in1017.3 mb 0.00 in0.0 mm 0.00 in/hr0.0 mm/hr 0.00 in0.0 mm
09:35 PM 38.0°F3.3°C 25.7°F-3.5°C 61% 19.0 mph SW30.6 kmh SW 25.0 mph40.2 kmh 30.04 in1017.3 mb 0.00 in0.0 mm 0.00 in/hr0.0 mm/hr 0.00 in0.0 mm
09:40 PM 37.9°F3.3°C 26.0°F-3.3°C 62% 22.0 mph SW35.4 kmh SW 24.0 mph38.6 kmh 30.04 in1017.3 mb 0.00 in0.0 mm 0.00 in/hr0.0 mm/hr 0.00 in0.0 mm
09:45 PM 37.9°F3.3°C 24.8°F-4.0°C 59% 14.0 mph SW22.5 kmh SW 25.0 mph40.2 kmh 30.04 in1017.3 mb 0.00 in0.0 mm 0.00 in/hr0.0 mm/hr 0.00 in0.0 mm
09:50 PM 37.9°F3.3°C 25.6°F-3.6°C 61% 18.0 mph SW29.0 kmh SW 23.0 mph37.0 kmh 30.03 in1016.9 mb 0.00 in0.0 mm 0.00 in/hr0.0 mm/hr 0.00 in0.0 mm
09:55 PM 37.8°F3.2°C 25.5°F-3.6°C 61% 18.0 mph SW29.0 kmh SW 21.0 mph33.8 kmh 30.03 in1016.9 mb 0.00 in0.0 mm 0.00 in/hr0.0 mm/hr 0.00 in0.0 mm
10:00 PM 37.7°F3.2°C 25.8°F-3.4°C 62% 15.0 mph SW24.1 kmh SW 18.0 mph29.0 kmh 30.03 in1016.9 mb 0.00 in0.0 mm 0.00 in/hr0.0 mm/hr 0.00 in0.0 mm
10:05 PM 37.8°F3.2°C 26.3°F-3.2°C 63% 16.0 mph SW25.7 kmh SW 21.0 mph33.8 kmh 30.03 in1016.9 mb 0.00 in0.0 mm 0.00 in/hr0.0 mm/hr 0.00 in0.0 mm
10:10 PM 37.8°F3.2°C 25.9°F-3.4°C 62% 12.0 mph WSW19.3 kmh WSW 21.0 mph33.8 kmh 30.03 in1016.9 mb 0.00 in0.0 mm 0.00 in/hr0.0 mm/hr 0.00 in0.0 mm
10:15 PM 38.0°F3.3°C 26.5°F-3.1°C 63% 19.0 mph SW30.6 kmh SW 23.0 mph37.0 kmh 30.02 in1016.6 mb 0.00 in0.0 mm 0.00 in/hr0.0 mm/hr 0.00 in0.0 mm
10:20 PM 38.0°F3.3°C 26.5°F-3.1°C 63% 20.0 mph SW32.2 kmh SW 27.0 mph43.5 kmh 30.02 in1016.6 mb 0.00 in0.0 mm 0.00 in/hr0.0 mm/hr 0.00 in0.0 mm
10:25 PM 38.0°F3.3°C 26.5°F-3.1°C 63% 20.0 mph SW32.2 kmh SW 25.0 mph40.2 kmh 30.02 in1016.6 mb 0.00 in0.0 mm 0.00 in/hr0.0 mm/hr 0.00 in0.0 mm
10:30 PM 38.2°F3.4°C 27.1°F-2.7°C 64% 20.0 mph SW32.2 kmh SW 24.0 mph38.6 kmh 30.01 in1016.3 mb 0.00 in0.0 mm 0.00 in/hr0.0 mm/hr 0.00 in0.0 mm
10:35 PM 38.2°F3.4°C 26.7°F-2.9°C 63% 19.0 mph SW30.6 kmh SW 22.0 mph35.4 kmh 30.01 in1016.3 mb 0.00 in0.0 mm 0.00 in/hr0.0 mm/hr 0.00 in0.0 mm
10:40 PM 38.3°F3.5°C 26.4°F-3.1°C 62% 24.0 mph SW38.6 kmh SW 24.0 mph38.6 kmh 30.01 in1016.3 mb 0.00 in0.0 mm 0.00 in/hr0.0 mm/hr 0.00 in0.0 mm
10:45 PM 38.3°F3.5°C 26.0°F-3.3°C 61% 18.0 mph SW29.0 kmh SW 23.0 mph37.0 kmh 30.01 in1016.3 mb 0.00 in0.0 mm 0.00 in/hr0.0 mm/hr 0.00 in0.0 mm
10:50 PM 38.3°F3.5°C 26.0°F-3.3°C 61% 18.0 mph WSW29.0 kmh WSW 23.0 mph37.0 kmh 30.01 in1016.3 mb 0.00 in0.0 mm 0.00 in/hr0.0 mm/hr 0.00 in0.0 mm
10:55 PM 38.3°F3.5°C 26.4°F-3.1°C 62% 20.0 mph SW32.2 kmh SW 24.0 mph38.6 kmh 30.00 in1015.9 mb 0.00 in0.0 mm 0.00 in/hr0.0 mm/hr 0.00 in0.0 mm
11:00 PM 38.4°F3.6°C 28.0°F-2.2°C 66% 19.0 mph SSW30.6 kmh SSW 24.0 mph38.6 kmh 30.00 in1015.9 mb 0.00 in0.0 mm 0.00 in/hr0.0 mm/hr 0.00 in0.0 mm
11:05 PM 38.4°F3.6°C 28.7°F-1.8°C 68% 20.0 mph SW32.2 kmh SW 27.0 mph43.5 kmh 30.00 in1015.9 mb 0.00 in0.0 mm 0.00 in/hr0.0 mm/hr 0.00 in0.0 mm
11:10 PM 38.4°F3.6°C 28.7°F-1.8°C 68% 23.0 mph SW37.0 kmh SW 25.0 mph40.2 kmh 30.00 in1015.9 mb 0.00 in0.0 mm 0.00 in/hr0.0 mm/hr 0.00 in0.0 mm
11:15 PM 38.3°F3.5°C 28.3°F-2.1°C 67% 23.0 mph SW37.0 kmh SW 26.0 mph41.8 kmh 29.99 in1015.6 mb 0.00 in0.0 mm 0.00 in/hr0.0 mm/hr 0.00 in0.0 mm
11:20 PM 38.4°F3.6°C 29.1°F-1.6°C 69% 17.0 mph SW27.4 kmh SW 26.0 mph41.8 kmh 29.99 in1015.6 mb 0.00 in0.0 mm 0.00 in/hr0.0 mm/hr 0.00 in0.0 mm
11:25 PM 38.4°F3.6°C 28.7°F-1.8°C 68% 17.0 mph SW27.4 kmh SW 24.0 mph38.6 kmh 29.99 in1015.6 mb 0.00 in0.0 mm 0.00 in/hr0.0 mm/hr 0.00 in0.0 mm
11:30 PM 38.4°F3.6°C 29.1°F-1.6°C 69% 24.0 mph SSW38.6 kmh SSW 24.0 mph38.6 kmh 29.98 in1015.2 mb 0.00 in0.0 mm 0.00 in/hr0.0 mm/hr 0.00 in0.0 mm
11:35 PM 38.5°F3.6°C 29.5°F-1.4°C 70% 22.0 mph SSW35.4 kmh SSW 26.0 mph41.8 kmh 29.98 in1015.2 mb 0.00 in0.0 mm 0.00 in/hr0.0 mm/hr 0.00 in0.0 mm
11:40 PM 38.5°F3.6°C 29.2°F-1.6°C 69% 21.0 mph SSW33.8 kmh SSW 23.0 mph37.0 kmh 29.97 in1014.9 mb 0.00 in0.0 mm 0.00 in/hr0.0 mm/hr 0.00 in0.0 mm
11:45 PM 38.5°F3.6°C 29.9°F-1.2°C 71% 21.0 mph SW33.8 kmh SW 24.0 mph38.6 kmh 29.97 in1014.9 mb 0.00 in0.0 mm 0.00 in/hr0.0 mm/hr 0.00 in0.0 mm
11:50 PM 38.6°F3.7°C 30.0°F-1.1°C 71% 21.0 mph SW33.8 kmh SW 23.0 mph37.0 kmh 29.97 in1014.9 mb 0.00 in0.0 mm 0.00 in/hr0.0 mm/hr 0.00 in0.0 mm
11:55 PM 38.6°F3.7°C 30.0°F-1.1°C 71% 17.0 mph SW27.4 kmh SW 22.0 mph35.4 kmh 29.96 in1014.6 mb 0.00 in0.0 mm 0.00 in/hr0.0 mm/hr 0.00 in0.0 mm